sensor_id;sensor_type;location;lat;lon;timestamp;pressure;altitude;pressure_sealevel;temperature
70123;BMP280;57489;37.404;24.920;2023-02-24T00:03:05;100382.25;;;18.88
70123;BMP280;57489;37.404;24.920;2023-02-24T00:08:05;100377.59;;;18.93
70123;BMP280;57489;37.404;24.920;2023-02-24T00:13:06;100379.75;;;18.91
70123;BMP280;57489;37.404;24.920;2023-02-24T00:18:06;100383.44;;;19.04
70123;BMP280;57489;37.404;24.920;2023-02-24T00:23:07;100389.81;;;18.94
70123;BMP280;57489;37.404;24.920;2023-02-24T00:28:07;100380.84;;;18.90
70123;BMP280;57489;37.404;24.920;2023-02-24T00:33:07;100387.28;;;18.89
70123;BMP280;57489;37.404;24.920;2023-02-24T00:38:08;100381.59;;;18.82
70123;BMP280;57489;37.404;24.920;2023-02-24T00:43:08;100371.56;;;18.79
70123;BMP280;57489;37.404;24.920;2023-02-24T00:48:09;100366.88;;;18.76
70123;BMP280;57489;37.404;24.920;2023-02-24T00:53:09;100365.47;;;18.78
70123;BMP280;57489;37.404;24.920;2023-02-24T00:58:10;100368.00;;;18.83
70123;BMP280;57489;37.404;24.920;2023-02-24T01:03:10;100367.94;;;18.75
70123;BMP280;57489;37.404;24.920;2023-02-24T01:08:10;100365.59;;;18.73
70123;BMP280;57489;37.404;24.920;2023-02-24T01:13:11;100365.63;;;18.82
70123;BMP280;57489;37.404;24.920;2023-02-24T01:18:11;100371.09;;;18.85
70123;BMP280;57489;37.404;24.920;2023-02-24T01:23:12;100360.31;;;18.82
70123;BMP280;57489;37.404;24.920;2023-02-24T01:28:12;100367.31;;;18.78
70123;BMP280;57489;37.404;24.920;2023-02-24T01:33:13;100360.31;;;18.82
70123;BMP280;57489;37.404;24.920;2023-02-24T01:38:13;100358.63;;;18.86
70123;BMP280;57489;37.404;24.920;2023-02-24T01:43:13;100363.34;;;18.89
70123;BMP280;57489;37.404;24.920;2023-02-24T01:48:14;100355.38;;;18.89
70123;BMP280;57489;37.404;24.920;2023-02-24T01:53:14;100351.00;;;18.93
70123;BMP280;57489;37.404;24.920;2023-02-24T01:58:20;100362.81;;;18.78
70123;BMP280;57489;37.404;24.920;2023-02-24T02:03:23;100343.41;;;18.78
70123;BMP280;57489;37.404;24.920;2023-02-24T02:08:24;100351.75;;;18.85
70123;BMP280;57489;37.404;24.920;2023-02-24T02:13:26;100369.19;;;18.77
70123;BMP280;57489;37.404;24.920;2023-02-24T02:35:33;100370.94;;;18.82
70123;BMP280;57489;37.404;24.920;2023-02-24T02:40:59;100370.94;;;18.82
70123;BMP280;57489;37.404;24.920;2023-02-24T02:46:15;100374.19;;;18.70
70123;BMP280;57489;37.404;24.920;2023-02-24T02:51:31;100374.66;;;18.72
70123;BMP280;57489;37.404;24.920;2023-02-24T02:56:41;100375.56;;;18.68
70123;BMP280;57489;37.404;24.920;2023-02-24T03:01:44;100379.91;;;18.64
70123;BMP280;57489;37.404;24.920;2023-02-24T03:07:05;100387.72;;;18.60
70123;BMP280;57489;37.404;24.920;2023-02-24T03:12:13;100399.59;;;18.63
70123;BMP280;57489;37.404;24.920;2023-02-24T03:17:18;100393.56;;;18.71
70123;BMP280;57489;37.404;24.920;2023-02-24T03:22:29;100390.44;;;18.69
70123;BMP280;57489;37.404;24.920;2023-02-24T03:32:51;100392.91;;;18.65
70123;BMP280;57489;37.404;24.920;2023-02-24T03:37:55;100388.97;;;18.63
70123;BMP280;57489;37.404;24.920;2023-02-24T03:43:02;100393.19;;;18.64
70123;BMP280;57489;37.404;24.920;2023-02-24T03:48:07;73814.56;;;-145.53
70123;BMP280;57489;37.404;24.920;2023-02-24T03:53:17;73814.56;;;-145.53
70123;BMP280;57489;37.404;24.920;2023-02-24T03:58:31;73814.56;;;-145.53
70123;BMP280;57489;37.404;24.920;2023-02-24T04:03:46;73814.56;;;-145.53
70123;BMP280;57489;37.404;24.920;2023-02-24T04:14:20;73814.56;;;-145.53
70123;BMP280;57489;37.404;24.920;2023-02-24T04:19:23;73814.56;;;-145.53
70123;BMP280;57489;37.404;24.920;2023-02-24T04:24:28;73814.56;;;-145.53
70123;BMP280;57489;37.404;24.920;2023-02-24T04:29:33;73814.56;;;-145.53
70123;BMP280;57489;37.404;24.920;2023-02-24T04:34:34;73814.56;;;-145.53
70123;BMP280;57489;37.404;24.920;2023-02-24T04:39:35;73814.56;;;-145.53
70123;BMP280;57489;37.404;24.920;2023-02-24T04:44:35;73814.56;;;-145.53
70123;BMP280;57489;37.404;24.920;2023-02-24T04:49:36;73814.56;;;-145.53
70123;BMP280;57489;37.404;24.920;2023-02-24T04:54:37;73814.56;;;-145.53
70123;BMP280;57489;37.404;24.920;2023-02-24T04:59:37;73814.56;;;-145.53
70123;BMP280;57489;37.404;24.920;2023-02-24T05:04:38;73814.56;;;-145.53
70123;BMP280;57489;37.404;24.920;2023-02-24T05:09:38;73814.56;;;-145.53
70123;BMP280;57489;37.404;24.920;2023-02-24T05:14:38;73814.56;;;-145.53
70123;BMP280;57489;37.404;24.920;2023-02-24T05:19:39;73814.56;;;-145.53
70123;BMP280;57489;37.404;24.920;2023-02-24T05:24:39;73814.56;;;-145.53
70123;BMP280;57489;37.404;24.920;2023-02-24T05:29:40;73814.56;;;-145.53
70123;BMP280;57489;37.404;24.920;2023-02-24T05:34:40;73814.56;;;-145.53
70123;BMP280;57489;37.404;24.920;2023-02-24T05:39:41;73814.56;;;-145.53
70123;BMP280;57489;37.404;24.920;2023-02-24T05:44:41;73814.56;;;-145.53
70123;BMP280;57489;37.404;24.920;2023-02-24T05:49:42;73814.56;;;-145.53
70123;BMP280;57489;37.404;24.920;2023-02-24T05:54:43;73814.56;;;-145.53
70123;BMP280;57489;37.404;24.920;2023-02-24T05:59:43;73814.56;;;-145.53
70123;BMP280;57489;37.404;24.920;2023-02-24T06:04:44;73814.56;;;-145.53
70123;BMP280;57489;37.404;24.920;2023-02-24T06:09:46;73814.56;;;-145.53
70123;BMP280;57489;37.404;24.920;2023-02-24T06:14:47;73814.56;;;-145.53
70123;BMP280;57489;37.404;24.920;2023-02-24T06:19:49;73814.56;;;-145.53
70123;BMP280;57489;37.404;24.920;2023-02-24T06:24:52;73814.56;;;-145.53
70123;BMP280;57489;37.404;24.920;2023-02-24T06:29:53;73814.56;;;-145.53
70123;BMP280;57489;37.404;24.920;2023-02-24T06:34:54;73814.56;;;-145.53
70123;BMP280;57489;37.404;24.920;2023-02-24T06:39:55;73814.56;;;-145.53
70123;BMP280;57489;37.404;24.920;2023-02-24T06:44:55;73814.56;;;-145.53
70123;BMP280;57489;37.404;24.920;2023-02-24T06:49:55;73814.56;;;-145.53
70123;BMP280;57489;37.404;24.920;2023-02-24T06:54:56;73814.56;;;-145.53
70123;BMP280;57489;37.404;24.920;2023-02-24T06:59:56;73814.56;;;-145.53
70123;BMP280;57489;37.404;24.920;2023-02-24T07:04:57;73814.56;;;-145.53
70123;BMP280;57489;37.404;24.920;2023-02-24T07:09:57;73814.56;;;-145.53
70123;BMP280;57489;37.404;24.920;2023-02-24T07:14:57;73814.56;;;-145.53
70123;BMP280;57489;37.404;24.920;2023-02-24T07:19:58;73814.56;;;-145.53
70123;BMP280;57489;37.404;24.920;2023-02-24T07:24:58;73814.56;;;-145.53
70123;BMP280;57489;37.404;24.920;2023-02-24T07:29:59;73814.56;;;-145.53
70123;BMP280;57489;37.404;24.920;2023-02-24T07:34:59;73814.56;;;-145.53
70123;BMP280;57489;37.404;24.920;2023-02-24T07:40:00;73814.56;;;-145.53
70123;BMP280;57489;37.404;24.920;2023-02-24T07:45:00;73814.56;;;-145.53
70123;BMP280;57489;37.404;24.920;2023-02-24T07:50:01;73814.56;;;-145.53
70123;BMP280;57489;37.404;24.920;2023-02-24T07:55:02;73814.56;;;-145.53
70123;BMP280;57489;37.404;24.920;2023-02-24T08:00:04;73814.56;;;-145.53
70123;BMP280;57489;37.404;24.920;2023-02-24T08:05:05;73814.56;;;-145.53
70123;BMP280;57489;37.404;24.920;2023-02-24T08:10:07;73814.56;;;-145.53
70123;BMP280;57489;37.404;24.920;2023-02-24T08:15:08;73814.56;;;-145.53
70123;BMP280;57489;37.404;24.920;2023-02-24T08:20:09;73814.56;;;-145.53
70123;BMP280;57489;37.404;24.920;2023-02-24T08:25:10;73814.56;;;-145.53
70123;BMP280;57489;37.404;24.920;2023-02-24T08:30:12;73814.56;;;-145.53
70123;BMP280;57489;37.404;24.920;2023-02-24T08:35:15;73814.56;;;-145.53
70123;BMP280;57489;37.404;24.920;2023-02-24T08:40:20;73814.56;;;-145.53
70123;BMP280;57489;37.404;24.920;2023-02-24T08:45:20;73814.56;;;-145.53
70123;BMP280;57489;37.404;24.920;2023-02-24T08:50:21;73814.56;;;-145.53
70123;BMP280;57489;37.404;24.920;2023-02-24T08:55:21;73814.56;;;-145.53
70123;BMP280;57489;37.404;24.920;2023-02-24T09:00:22;73814.56;;;-145.53
70123;BMP280;57489;37.404;24.920;2023-02-24T09:05:22;73814.56;;;-145.53
70123;BMP280;57489;37.404;24.920;2023-02-24T09:10:23;73814.56;;;-145.53
70123;BMP280;57489;37.404;24.920;2023-02-24T09:15:23;73814.56;;;-145.53
70123;BMP280;57489;37.404;24.920;2023-02-24T09:20:24;73814.56;;;-145.53
70123;BMP280;57489;37.404;24.920;2023-02-24T09:25:25;73814.56;;;-145.53
70123;BMP280;57489;37.404;24.920;2023-02-24T09:30:28;73814.56;;;-145.53
70123;BMP280;57489;37.404;24.920;2023-02-24T09:35:28;73814.56;;;-145.53
70123;BMP280;57489;37.404;24.920;2023-02-24T09:40:29;73814.56;;;-145.53
70123;BMP280;57489;37.404;24.920;2023-02-24T09:45:29;73814.56;;;-145.53
70123;BMP280;57489;37.404;24.920;2023-02-24T09:50:31;73814.56;;;-145.53
70123;BMP280;57489;37.404;24.920;2023-02-24T10:00:37;73814.56;;;-145.53
70123;BMP280;57489;37.404;24.920;2023-02-24T10:06:00;73814.56;;;-145.53
70123;BMP280;57489;37.404;24.920;2023-02-24T10:11:04;73814.56;;;-145.53
70123;BMP280;57489;37.404;24.920;2023-02-24T10:16:10;73814.56;;;-145.53
70123;BMP280;57489;37.404;24.920;2023-02-24T10:21:35;73814.56;;;-145.53
70123;BMP280;57489;37.404;24.920;2023-02-24T10:26:43;73814.56;;;-145.53
70123;BMP280;57489;37.404;24.920;2023-02-24T10:31:48;73814.56;;;-145.53
70123;BMP280;57489;37.404;24.920;2023-02-24T10:36:48;73814.56;;;-145.53
70123;BMP280;57489;37.404;24.920;2023-02-24T10:41:55;73814.56;;;-145.53
70123;BMP280;57489;37.404;24.920;2023-02-24T10:47:06;73814.56;;;-145.53
70123;BMP280;57489;37.404;24.920;2023-02-24T10:52:11;73814.56;;;-145.53
70123;BMP280;57489;37.404;24.920;2023-02-24T10:57:12;73814.56;;;-145.53
70123;BMP280;57489;37.404;24.920;2023-02-24T11:02:19;73814.56;;;-145.53
70123;BMP280;57489;37.404;24.920;2023-02-24T11:07:21;73814.56;;;-145.53
70123;BMP280;57489;37.404;24.920;2023-02-24T11:12:23;73814.56;;;-145.53
70123;BMP280;57489;37.404;24.920;2023-02-24T11:17:23;73814.56;;;-145.53
70123;BMP280;57489;37.404;24.920;2023-02-24T11:22:31;73814.56;;;-145.53
70123;BMP280;57489;37.404;24.920;2023-02-24T11:27:33;73814.56;;;-145.53
70123;BMP280;57489;37.404;24.920;2023-02-24T11:43:26;73814.56;;;-145.53
70123;BMP280;57489;37.404;24.920;2023-02-24T11:48:33;73814.56;;;-145.53
70123;BMP280;57489;37.404;24.920;2023-02-24T11:53:59;73814.56;;;-145.53
70123;BMP280;57489;37.404;24.920;2023-02-24T11:59:05;73814.56;;;-145.53
70123;BMP280;57489;37.404;24.920;2023-02-24T12:04:11;73814.56;;;-145.53
70123;BMP280;57489;37.404;24.920;2023-02-24T12:09:18;73814.56;;;-145.53
70123;BMP280;57489;37.404;24.920;2023-02-24T12:20:06;73814.56;;;-145.53
70123;BMP280;57489;37.404;24.920;2023-02-24T12:24:59;73814.56;;;-145.53
70123;BMP280;57489;37.404;24.920;2023-02-24T12:30:25;73814.56;;;-145.53
70123;BMP280;57489;37.404;24.920;2023-02-24T12:35:39;73814.56;;;-145.53
70123;BMP280;57489;37.404;24.920;2023-02-24T12:41:25;73814.56;;;-145.53
70123;BMP280;57489;37.404;24.920;2023-02-24T12:46:30;73814.56;;;-145.53
70123;BMP280;57489;37.404;24.920;2023-02-24T13:02:35;73814.56;;;-145.53
70123;BMP280;57489;37.404;24.920;2023-02-24T13:08:04;73814.56;;;-145.53
70123;BMP280;57489;37.404;24.920;2023-02-24T13:13:18;73814.56;;;-145.53
70123;BMP280;57489;37.404;24.920;2023-02-24T13:18:25;73814.56;;;-145.53
70123;BMP280;57489;37.404;24.920;2023-02-24T13:23:25;73814.56;;;-145.53
70123;BMP280;57489;37.404;24.920;2023-02-24T13:28:32;73814.56;;;-145.53
70123;BMP280;57489;37.404;24.920;2023-02-24T13:33:37;73814.56;;;-145.53
70123;BMP280;57489;37.404;24.920;2023-02-24T13:38:40;73814.56;;;-145.53
70123;BMP280;57489;37.404;24.920;2023-02-24T13:43:54;73814.56;;;-145.53
70123;BMP280;57489;37.404;24.920;2023-02-24T14:00:17;73814.56;;;-145.53
70123;BMP280;57489;37.404;24.920;2023-02-24T14:05:25;73814.56;;;-145.53
70123;BMP280;57489;37.404;24.920;2023-02-24T14:10:31;73814.56;;;-145.53
70123;BMP280;57489;37.404;24.920;2023-02-24T14:15:32;73814.56;;;-145.53
70123;BMP280;57489;37.404;24.920;2023-02-24T14:20:35;73814.56;;;-145.53
70123;BMP280;57489;37.404;24.920;2023-02-24T14:25:37;73814.56;;;-145.53
70123;BMP280;57489;37.404;24.920;2023-02-24T14:30:39;73814.56;;;-145.53
70123;BMP280;57489;37.404;24.920;2023-02-24T14:35:45;73814.56;;;-145.53
70123;BMP280;57489;37.404;24.920;2023-02-24T14:40:47;73814.56;;;-145.53
70123;BMP280;57489;37.404;24.920;2023-02-24T14:45:49;73814.56;;;-145.53
70123;BMP280;57489;37.404;24.920;2023-02-24T14:50:51;73814.56;;;-145.53
70123;BMP280;57489;37.404;24.920;2023-02-24T14:55:53;73814.56;;;-145.53
70123;BMP280;57489;37.404;24.920;2023-02-24T15:01:02;73814.56;;;-145.53
70123;BMP280;57489;37.404;24.920;2023-02-24T15:06:18;73814.56;;;-145.53
70123;BMP280;57489;37.404;24.920;2023-02-24T15:11:21;73814.56;;;-145.53
70123;BMP280;57489;37.404;24.920;2023-02-24T15:16:41;73814.56;;;-145.53
70123;BMP280;57489;37.404;24.920;2023-02-24T15:21:42;73814.56;;;-145.53
70123;BMP280;57489;37.404;24.920;2023-02-24T15:26:52;73814.56;;;-145.53
70123;BMP280;57489;37.404;24.920;2023-02-24T15:31:54;73814.56;;;-145.53
70123;BMP280;57489;37.404;24.920;2023-02-24T15:36:58;73814.56;;;-145.53
70123;BMP280;57489;37.404;24.920;2023-02-24T15:42:25;73814.56;;;-145.53
70123;BMP280;57489;37.404;24.920;2023-02-24T15:47:40;73814.56;;;-145.53
70123;BMP280;57489;37.404;24.920;2023-02-24T15:52:41;73814.56;;;-145.53
70123;BMP280;57489;37.404;24.920;2023-02-24T15:57:42;73814.56;;;-145.53
70123;BMP280;57489;37.404;24.920;2023-02-24T16:02:43;73814.56;;;-145.53
70123;BMP280;57489;37.404;24.920;2023-02-24T16:07:45;73814.56;;;-145.53
70123;BMP280;57489;37.404;24.920;2023-02-24T16:12:52;73814.56;;;-145.53
70123;BMP280;57489;37.404;24.920;2023-02-24T16:17:54;73814.56;;;-145.53
70123;BMP280;57489;37.404;24.920;2023-02-24T16:22:56;73814.56;;;-145.53
70123;BMP280;57489;37.404;24.920;2023-02-24T16:27:57;73814.56;;;-145.53
70123;BMP280;57489;37.404;24.920;2023-02-24T16:32:59;73814.56;;;-145.53
70123;BMP280;57489;37.404;24.920;2023-02-24T16:37:59;73814.56;;;-145.53
70123;BMP280;57489;37.404;24.920;2023-02-24T16:43:00;73814.56;;;-145.53
70123;BMP280;57489;37.404;24.920;2023-02-24T16:48:04;73814.56;;;-145.53
70123;BMP280;57489;37.404;24.920;2023-02-24T16:53:06;73814.56;;;-145.53
70123;BMP280;57489;37.404;24.920;2023-02-24T16:58:06;73814.56;;;-145.53
70123;BMP280;57489;37.404;24.920;2023-02-24T17:08:30;73814.56;;;-145.53
70123;BMP280;57489;37.404;24.920;2023-02-24T17:13:30;73814.56;;;-145.53
70123;BMP280;57489;37.404;24.920;2023-02-24T17:18:31;73814.56;;;-145.53
70123;BMP280;57489;37.404;24.920;2023-02-24T17:23:31;73814.56;;;-145.53
70123;BMP280;57489;37.404;24.920;2023-02-24T17:28:31;73814.56;;;-145.53
70123;BMP280;57489;37.404;24.920;2023-02-24T17:33:33;73814.56;;;-145.53
70123;BMP280;57489;37.404;24.920;2023-02-24T17:38:33;73814.56;;;-145.53
70123;BMP280;57489;37.404;24.920;2023-02-24T17:43:33;73814.56;;;-145.53
70123;BMP280;57489;37.404;24.920;2023-02-24T17:48:34;73814.56;;;-145.53
70123;BMP280;57489;37.404;24.920;2023-02-24T17:53:34;73814.56;;;-145.53
70123;BMP280;57489;37.404;24.920;2023-02-24T17:58:35;73814.56;;;-145.53
70123;BMP280;57489;37.404;24.920;2023-02-24T18:03:36;73814.56;;;-145.53
70123;BMP280;57489;37.404;24.920;2023-02-24T18:08:37;73814.56;;;-145.53
70123;BMP280;57489;37.404;24.920;2023-02-24T18:13:38;73814.56;;;-145.53
70123;BMP280;57489;37.404;24.920;2023-02-24T18:18:39;73814.56;;;-145.53
70123;BMP280;57489;37.404;24.920;2023-02-24T18:23:39;73814.56;;;-145.53
70123;BMP280;57489;37.404;24.920;2023-02-24T18:28:40;73814.56;;;-145.53
70123;BMP280;57489;37.404;24.920;2023-02-24T18:33:40;73814.56;;;-145.53
70123;BMP280;57489;37.404;24.920;2023-02-24T18:38:41;73814.56;;;-145.53
70123;BMP280;57489;37.404;24.920;2023-02-24T18:43:42;73814.56;;;-145.53
70123;BMP280;57489;37.404;24.920;2023-02-24T18:48:44;73814.56;;;-145.53
70123;BMP280;57489;37.404;24.920;2023-02-24T18:53:45;73814.56;;;-145.53
70123;BMP280;57489;37.404;24.920;2023-02-24T18:58:46;73814.56;;;-145.53
70123;BMP280;57489;37.404;24.920;2023-02-24T19:03:48;73814.56;;;-145.53
70123;BMP280;57489;37.404;24.920;2023-02-24T19:09:01;73814.56;;;-145.53
70123;BMP280;57489;37.404;24.920;2023-02-24T19:14:02;73814.56;;;-145.53
70123;BMP280;57489;37.404;24.920;2023-02-24T19:19:03;73814.56;;;-145.53
70123;BMP280;57489;37.404;24.920;2023-02-24T19:24:04;73814.56;;;-145.53
70123;BMP280;57489;37.404;24.920;2023-02-24T19:29:05;73814.56;;;-145.53
70123;BMP280;57489;37.404;24.920;2023-02-24T19:34:09;73814.56;;;-145.53
70123;BMP280;57489;37.404;24.920;2023-02-24T19:39:12;73814.56;;;-145.53
70123;BMP280;57489;37.404;24.920;2023-02-24T19:44:13;73814.56;;;-145.53
70123;BMP280;57489;37.404;24.920;2023-02-24T19:49:14;73814.56;;;-145.53
70123;BMP280;57489;37.404;24.920;2023-02-24T19:54:14;73814.56;;;-145.53
70123;BMP280;57489;37.404;24.920;2023-02-24T19:59:15;73814.56;;;-145.53
70123;BMP280;57489;37.404;24.920;2023-02-24T20:04:16;73814.56;;;-145.53
70123;BMP280;57489;37.404;24.920;2023-02-24T20:09:19;73814.56;;;-145.53
70123;BMP280;57489;37.404;24.920;2023-02-24T20:14:19;73814.56;;;-145.53
70123;BMP280;57489;37.404;24.920;2023-02-24T20:19:20;73814.56;;;-145.53
70123;BMP280;57489;37.404;24.920;2023-02-24T20:24:21;73814.56;;;-145.53
70123;BMP280;57489;37.404;24.920;2023-02-24T20:29:21;73814.56;;;-145.53
70123;BMP280;57489;37.404;24.920;2023-02-24T20:34:22;73814.56;;;-145.53
70123;BMP280;57489;37.404;24.920;2023-02-24T20:39:22;73814.56;;;-145.53
70123;BMP280;57489;37.404;24.920;2023-02-24T20:44:23;73814.56;;;-145.53
70123;BMP280;57489;37.404;24.920;2023-02-24T20:49:23;73814.56;;;-145.53
70123;BMP280;57489;37.404;24.920;2023-02-24T20:54:23;73814.56;;;-145.53
70123;BMP280;57489;37.404;24.920;2023-02-24T20:59:24;73814.56;;;-145.53
70123;BMP280;57489;37.404;24.920;2023-02-24T21:04:24;73814.56;;;-145.53
70123;BMP280;57489;37.404;24.920;2023-02-24T21:09:25;73814.56;;;-145.53
70123;BMP280;57489;37.404;24.920;2023-02-24T21:14:25;73814.56;;;-145.53
70123;BMP280;57489;37.404;24.920;2023-02-24T21:19:26;73814.56;;;-145.53
70123;BMP280;57489;37.404;24.920;2023-02-24T21:24:26;73814.56;;;-145.53
70123;BMP280;57489;37.404;24.920;2023-02-24T21:29:27;73814.56;;;-145.53
70123;BMP280;57489;37.404;24.920;2023-02-24T21:34:28;73814.56;;;-145.53
70123;BMP280;57489;37.404;24.920;2023-02-24T21:39:28;73814.56;;;-145.53
70123;BMP280;57489;37.404;24.920;2023-02-24T21:44:29;73814.56;;;-145.53
70123;BMP280;57489;37.404;24.920;2023-02-24T21:49:29;73814.56;;;-145.53
70123;BMP280;57489;37.404;24.920;2023-02-24T21:54:30;73814.56;;;-145.53
70123;BMP280;57489;37.404;24.920;2023-02-24T21:59:31;73814.56;;;-145.53
70123;BMP280;57489;37.404;24.920;2023-02-24T22:04:31;73814.56;;;-145.53
70123;BMP280;57489;37.404;24.920;2023-02-24T22:09:32;73814.56;;;-145.53
70123;BMP280;57489;37.404;24.920;2023-02-24T22:14:32;73814.56;;;-145.53
70123;BMP280;57489;37.404;24.920;2023-02-24T22:19:33;73814.56;;;-145.53
70123;BMP280;57489;37.404;24.920;2023-02-24T22:24:33;73814.56;;;-145.53
70123;BMP280;57489;37.404;24.920;2023-02-24T22:29:34;73814.56;;;-145.53
70123;BMP280;57489;37.404;24.920;2023-02-24T22:34:34;73814.56;;;-145.53
70123;BMP280;57489;37.404;24.920;2023-02-24T22:39:35;73814.56;;;-145.53
70123;BMP280;57489;37.404;24.920;2023-02-24T22:44:36;73814.56;;;-145.53
70123;BMP280;57489;37.404;24.920;2023-02-24T22:49:36;73814.56;;;-145.53
70123;BMP280;57489;37.404;24.920;2023-02-24T22:54:37;73814.56;;;-145.53
70123;BMP280;57489;37.404;24.920;2023-02-24T22:59:37;73814.56;;;-145.53
70123;BMP280;57489;37.404;24.920;2023-02-24T23:04:38;73814.56;;;-145.53
70123;BMP280;57489;37.404;24.920;2023-02-24T23:09:38;73814.56;;;-145.53
70123;BMP280;57489;37.404;24.920;2023-02-24T23:14:39;73814.56;;;-145.53
70123;BMP280;57489;37.404;24.920;2023-02-24T23:19:39;73814.56;;;-145.53
70123;BMP280;57489;37.404;24.920;2023-02-24T23:24:39;73814.56;;;-145.53
70123;BMP280;57489;37.404;24.920;2023-02-24T23:29:40;73814.56;;;-145.53
70123;BMP280;57489;37.404;24.920;2023-02-24T23:34:40;73814.56;;;-145.53
70123;BMP280;57489;37.404;24.920;2023-02-24T23:39:41;73814.56;;;-145.53
70123;BMP280;57489;37.404;24.920;2023-02-24T23:44:41;73814.56;;;-145.53
70123;BMP280;57489;37.404;24.920;2023-02-24T23:49:42;73814.56;;;-145.53
70123;BMP280;57489;37.404;24.920;2023-02-24T23:54:45;73814.56;;;-145.53
70123;BMP280;57489;37.404;24.920;2023-02-24T23:59:46;73814.56;;;-145.53
